Eastampton, New Jersey
Current Conditions -  °F | °C
As of 1:54 PM on Friday 28 Nov 2014 (Local Time) from KVAY Reporting Station
Scattered Clouds Scattered Clouds  
Wind Chill: 29°   Ceiling: Unl
Heat Index: 37°   Visibility: 10mi
Dew Point: 14°   Wind: 13mph
Humidity: 39%   Direction: 310°NW
Pressure: 30.21"   Gusts: 22mph
Location:  39.9896°N, 74.8021°W
Report Text: KVAY 281854Z AUTO 31011G19KT 10SM SCT055 03/M10 A3021 RMK AO2 SLP229 T00281100
Loading
Personal Weather Stations






























Interactive Weather Map New forecast layout! Learn more

10-Day Weather Forecast

Advertisements
Track Severe Weather on mobile